createdAt,value
2022-10-19T00:00:15.751Z,12.25
2022-10-19T00:01:22.866Z,12.25
2022-10-19T00:02:25.982Z,12.18
2022-10-19T00:03:28.093Z,12.23
2022-10-19T00:04:29.924Z,12.15
2022-10-19T00:05:31.820Z,11.84
2022-10-19T00:06:36.481Z,12.17
2022-10-19T00:07:39.445Z,12.16
2022-10-19T00:08:42.373Z,11.80
2022-10-19T00:09:44.452Z,11.99
2022-10-19T00:10:47.877Z,11.49
2022-10-19T00:11:52.193Z,12.01
2022-10-19T00:12:54.263Z,11.91
2022-10-19T00:13:57.919Z,11.61
2022-10-19T00:14:59.643Z,11.69
2022-10-19T00:16:04.954Z,11.88
2022-10-19T00:17:08.839Z,11.70
2022-10-19T00:18:11.174Z,12.05
2022-10-19T00:19:15.891Z,11.94
2022-10-19T00:20:17.483Z,11.61
2022-10-19T00:21:20.185Z,12.01
2022-10-19T00:22:22.657Z,11.98
2022-10-19T00:23:24.370Z,12.01
2022-10-19T00:24:26.652Z,11.89
2022-10-19T00:25:28.653Z,11.97
2022-10-19T00:26:30.437Z,11.93
2022-10-19T00:27:41.705Z,11.64
2022-10-19T00:28:50.414Z,11.96
2022-10-19T00:29:52.484Z,11.82
2022-10-19T00:30:54.513Z,11.72
2022-10-19T00:31:56.106Z,11.91
2022-10-19T00:32:59.438Z,11.89
2022-10-19T00:34:01.291Z,11.81
2022-10-19T00:35:05.539Z,11.81
2022-10-19T00:36:16.497Z,11.59
2022-10-19T00:37:19.544Z,11.65
2022-10-19T00:38:24.531Z,11.74
2022-10-19T00:39:26.612Z,11.76
2022-10-19T00:40:32.969Z,11.58
2022-10-19T00:41:39.139Z,11.68
2022-10-19T00:42:41.506Z,11.72
2022-10-19T00:44:03.421Z,11.73
2022-10-19T00:45:17.443Z,11.71
2022-10-19T00:46:24.120Z,11.66
2022-10-19T00:47:27.496Z,11.58
2022-10-19T00:48:32.445Z,11.49
2022-10-19T00:49:40.194Z,11.46
2022-10-19T00:50:46.058Z,11.60
2022-10-19T00:51:50.889Z,11.54
2022-10-19T00:52:54.119Z,11.43
2022-10-19T00:53:56.961Z,11.39
2022-10-19T00:54:59.797Z,11.54
2022-10-19T00:56:06.235Z,11.55
2022-10-19T00:57:09.142Z,11.55
2022-10-19T00:58:11.340Z,11.44
2022-10-19T00:59:19.984Z,11.58
2022-10-19T01:00:21.630Z,11.20
2022-10-19T01:01:27.354Z,11.18
2022-10-19T01:02:29.351Z,11.07
2022-10-19T01:03:31.668Z,11.53
2022-10-19T01:04:39.695Z,11.53
2022-10-19T01:05:44.757Z,11.52
2022-10-19T01:06:46.767Z,11.20
2022-10-19T01:07:49.033Z,11.04
2022-10-19T01:08:51.272Z,11.45
2022-10-19T01:09:54.819Z,11.44
2022-10-19T01:11:25.818Z,11.43
2022-10-19T01:12:47.062Z,11.34
2022-10-19T01:14:10.925Z,10.95
2022-10-19T01:15:44.705Z,11.30
2022-10-19T01:17:17.509Z,11.35
2022-10-19T01:18:53.719Z,11.17
2022-10-19T01:20:20.055Z,11.37
2022-10-19T01:21:56.024Z,11.16
2022-10-19T01:23:19.549Z,11.35
2022-10-19T01:24:59.080Z,11.35
2022-10-19T01:26:03.808Z,11.32
2022-10-19T01:27:14.996Z,11.26
2022-10-19T01:28:17.678Z,11.26
2022-10-19T01:29:31.624Z,11.25
2022-10-19T01:30:42.169Z,11.24
2022-10-19T01:32:03.208Z,11.07
2022-10-19T01:33:13.978Z,11.23
2022-10-19T01:34:34.192Z,11.21
2022-10-19T01:36:01.681Z,11.26
2022-10-19T01:37:29.456Z,11.29
2022-10-19T01:38:57.226Z,11.28
2022-10-19T01:40:16.881Z,11.29
2022-10-19T01:41:30.018Z,11.33
2022-10-19T01:43:18.474Z,11.31
2022-10-19T01:44:30.860Z,11.33
2022-10-19T01:45:54.807Z,11.33
2022-10-19T01:47:06.581Z,11.25
2022-10-19T01:48:22.038Z,11.30
2022-10-19T01:49:48.437Z,11.27
2022-10-19T01:51:05.255Z,11.24
2022-10-19T01:52:10.824Z,11.22
2022-10-19T01:53:14.491Z,10.78
2022-10-19T01:54:19.181Z,11.20
2022-10-19T01:55:24.519Z,11.18
2022-10-19T01:56:29.197Z,10.92
2022-10-19T01:57:34.944Z,11.11
2022-10-19T01:58:42.542Z,10.88
2022-10-19T01:59:47.896Z,11.05
2022-10-19T02:00:53.526Z,11.05
2022-10-19T02:01:56.289Z,11.01
2022-10-19T02:03:01.820Z,10.94
2022-10-19T02:04:04.946Z,10.91
2022-10-19T02:05:09.058Z,10.78
2022-10-19T02:06:13.707Z,10.85
2022-10-19T02:07:16.560Z,10.84
2022-10-19T02:08:25.877Z,10.93
2022-10-19T02:09:27.780Z,10.57
2022-10-19T02:10:32.013Z,10.57
2022-10-19T02:11:37.244Z,10.55
2022-10-19T02:12:40.031Z,10.82
2022-10-19T02:13:47.817Z,10.81
2022-10-19T02:14:54.172Z,10.79
2022-10-19T02:16:00.914Z,10.34
2022-10-19T02:17:08.111Z,10.44
2022-10-19T02:18:13.306Z,10.78
2022-10-19T02:19:17.283Z,10.79
2022-10-19T02:20:20.781Z,10.81
2022-10-19T02:21:22.611Z,10.81
2022-10-19T02:22:24.527Z,10.78
2022-10-19T02:23:28.318Z,10.77
2022-10-19T02:24:31.987Z,10.31
2022-10-19T02:25:34.762Z,10.47
2022-10-19T02:26:37.849Z,10.75
2022-10-19T02:27:44.908Z,10.73
2022-10-19T02:28:47.558Z,10.71
2022-10-19T02:29:52.012Z,10.53
2022-10-19T02:30:54.210Z,10.27
2022-10-19T02:31:57.771Z,10.54
2022-10-19T02:33:00.254Z,10.12
2022-10-19T02:34:02.218Z,10.38
2022-10-19T02:35:04.161Z,10.33
2022-10-19T02:36:06.070Z,10.50
2022-10-19T02:37:08.171Z,10.20
2022-10-19T02:38:14.924Z,10.52
2022-10-19T02:39:17.031Z,10.50
2022-10-19T02:40:22.209Z,10.31
2022-10-19T02:41:44.487Z,10.65
2022-10-19T02:42:56.503Z,10.48
2022-10-19T02:44:17.022Z,10.86
2022-10-19T02:45:22.546Z,10.97
2022-10-19T02:46:46.206Z,10.79
2022-10-19T02:48:05.645Z,10.67
2022-10-19T02:49:09.781Z,10.75
2022-10-19T02:50:11.647Z,11.16
2022-10-19T02:51:41.087Z,11.21
2022-10-19T02:52:43.516Z,10.89
2022-10-19T02:53:54.810Z,11.05
2022-10-19T02:54:56.728Z,11.23
2022-10-19T02:56:01.058Z,11.07
2022-10-19T02:57:24.394Z,11.14
2022-10-19T02:58:29.098Z,11.37
2022-10-19T02:59:31.207Z,10.94
2022-10-19T03:00:32.932Z,11.06
2022-10-19T03:01:35.616Z,11.34
2022-10-19T03:02:38.644Z,11.29
2022-10-19T03:03:41.355Z,11.34
2022-10-19T03:05:49.562Z,11.09
2022-10-19T03:06:51.894Z,11.26
2022-10-19T03:07:53.563Z,11.52
2022-10-19T03:08:55.604Z,11.24
2022-10-19T03:09:59.516Z,11.53
2022-10-19T03:11:03.591Z,11.55
2022-10-19T03:12:17.263Z,11.36
2022-10-19T03:13:18.831Z,11.26
2022-10-19T03:14:20.804Z,11.52
2022-10-19T03:15:27.067Z,11.28
2022-10-19T03:16:29.921Z,11.56
2022-10-19T03:17:32.210Z,11.66
2022-10-19T03:18:34.921Z,11.21
2022-10-19T03:19:37.921Z,11.64
2022-10-19T03:21:55.323Z,11.43
2022-10-19T03:22:59.327Z,11.52
2022-10-19T03:24:03.425Z,11.41
2022-10-19T03:25:08.795Z,11.57
2022-10-19T03:26:15.402Z,11.32
2022-10-19T03:27:18.492Z,11.48
2022-10-19T03:28:20.326Z,11.37
2022-10-19T03:29:23.818Z,11.61
2022-10-19T03:30:25.761Z,11.63
2022-10-19T03:31:28.247Z,11.50
2022-10-19T03:32:30.260Z,11.60
2022-10-19T03:33:33.201Z,11.51
2022-10-19T03:34:35.056Z,11.46
2022-10-19T03:35:39.139Z,11.59
2022-10-19T03:36:46.674Z,11.51
2022-10-19T03:37:50.744Z,11.28
2022-10-19T03:38:57.377Z,11.19
2022-10-19T03:40:03.761Z,11.54
2022-10-19T03:41:09.252Z,11.39
2022-10-19T03:42:11.574Z,11.42
2022-10-19T03:43:14.303Z,11.08
2022-10-19T03:44:16.264Z,11.53
2022-10-19T03:45:18.976Z,10.97
2022-10-19T03:46:24.416Z,11.09
2022-10-19T03:47:30.134Z,11.48
2022-10-19T03:48:33.750Z,11.46
2022-10-19T03:49:38.105Z,11.04
2022-10-19T03:50:43.144Z,11.25
2022-10-19T03:51:44.933Z,11.39
2022-10-19T03:52:49.810Z,11.25
2022-10-19T03:53:58.068Z,11.38
2022-10-19T03:54:59.756Z,11.24
2022-10-19T03:56:07.174Z,11.02
2022-10-19T03:57:09.093Z,11.27
2022-10-19T03:58:10.795Z,11.02
2022-10-19T03:59:14.916Z,10.80
2022-10-19T04:00:16.983Z,11.10
2022-10-19T04:01:25.423Z,11.24
2022-10-19T04:02:27.050Z,11.08
2022-10-19T04:03:28.940Z,11.27
2022-10-19T04:04:32.298Z,10.93
2022-10-19T04:05:35.682Z,10.81
2022-10-19T04:06:45.390Z,10.95
2022-10-19T04:07:47.200Z,10.89
2022-10-19T04:08:50.871Z,10.90
2022-10-19T04:09:52.926Z,11.16
2022-10-19T04:11:03.292Z,11.08
2022-10-19T04:12:08.751Z,10.85
2022-10-19T04:13:11.781Z,11.12
2022-10-19T04:14:26.758Z,11.18
2022-10-19T04:15:35.738Z,11.07
2022-10-19T04:16:37.461Z,10.82
2022-10-19T04:17:39.638Z,10.84
2022-10-19T04:18:41.570Z,11.02
2022-10-19T04:19:47.018Z,11.12
2022-10-19T04:20:49.943Z,10.81
2022-10-19T04:21:51.622Z,10.75
2022-10-19T04:22:57.518Z,10.98
2022-10-19T04:24:13.477Z,10.74
2022-10-19T04:25:16.691Z,10.93
2022-10-19T04:26:18.898Z,10.84
2022-10-19T04:27:24.067Z,10.92
2022-10-19T04:28:26.740Z,10.89
2022-10-19T04:29:30.169Z,10.86
2022-10-19T04:30:38.309Z,10.45
2022-10-19T04:31:41.327Z,10.77
2022-10-19T04:32:43.151Z,10.58
2022-10-19T04:34:46.436Z,10.49
2022-10-19T04:35:55.717Z,10.55
2022-10-19T04:37:00.671Z,10.22
2022-10-19T04:38:04.912Z,10.42
2022-10-19T04:39:07.765Z,10.15
2022-10-19T04:40:15.059Z,10.21
2022-10-19T04:41:21.599Z,10.02
2022-10-19T04:42:23.531Z,10.44
2022-10-19T04:43:26.135Z,9.97
2022-10-19T04:44:29.315Z,10.40
2022-10-19T04:45:36.209Z,10.25
2022-10-19T04:46:39.660Z,10.17
2022-10-19T04:47:45.376Z,10.25
2022-10-19T04:48:51.949Z,10.30
2022-10-19T04:49:56.066Z,10.19
2022-10-19T04:50:58.880Z,10.03
2022-10-19T04:52:02.325Z,9.97
2022-10-19T04:53:05.260Z,10.23
2022-10-19T04:54:08.485Z,10.12
2022-10-19T04:55:12.587Z,10.30
2022-10-19T04:56:20.473Z,10.29
2022-10-19T04:57:22.101Z,10.23
2022-10-19T04:58:24.187Z,10.20
2022-10-19T04:59:26.632Z,10.18
2022-10-19T05:00:29.973Z,9.95
2022-10-19T05:01:31.765Z,9.87
2022-10-19T05:02:36.244Z,10.21
2022-10-19T05:03:51.097Z,10.05
2022-10-19T05:04:56.010Z,9.89
2022-10-19T05:06:00.628Z,9.97
2022-10-19T05:07:02.692Z,10.18
2022-10-19T05:08:04.426Z,9.93
2022-10-19T05:09:10.490Z,9.76
2022-10-19T05:10:12.627Z,9.98
2022-10-19T05:11:21.932Z,9.86
2022-10-19T05:12:26.173Z,9.68
2022-10-19T05:13:35.486Z,9.90
2022-10-19T05:14:39.135Z,10.00
2022-10-19T05:15:44.473Z,9.89
2022-10-19T05:16:46.294Z,9.89
2022-10-19T05:17:48.256Z,9.87
2022-10-19T05:18:57.021Z,9.63
2022-10-19T05:20:00.762Z,9.72
2022-10-19T05:21:09.613Z,9.96
2022-10-19T05:22:14.101Z,9.78
2022-10-19T05:23:15.722Z,9.42
2022-10-19T05:24:28.859Z,9.94
2022-10-19T05:25:30.792Z,9.92
2022-10-19T05:26:32.794Z,9.88
2022-10-19T05:27:37.417Z,9.93
2022-10-19T05:28:40.144Z,9.94
2022-10-19T05:29:42.196Z,9.60
2022-10-19T05:30:48.832Z,9.51
2022-10-19T05:31:59.485Z,9.70
2022-10-19T05:33:06.479Z,9.55
2022-10-19T05:35:10.310Z,9.59
2022-10-19T05:36:22.781Z,9.89
2022-10-19T05:37:27.653Z,9.89
2022-10-19T05:38:32.082Z,10.03
2022-10-19T05:39:34.689Z,9.66
2022-10-19T05:40:36.603Z,9.74
2022-10-19T05:41:40.692Z,9.67
2022-10-19T05:42:43.029Z,9.94
2022-10-19T05:43:53.716Z,9.81
2022-10-19T05:44:55.370Z,9.72
2022-10-19T05:46:10.848Z,9.74
2022-10-19T05:47:12.497Z,9.72
2022-10-19T05:48:14.797Z,9.74
2022-10-19T05:49:18.937Z,10.08
2022-10-19T05:50:22.580Z,9.86
2022-10-19T05:51:27.385Z,10.01
2022-10-19T05:52:39.947Z,10.01
2022-10-19T05:53:42.438Z,9.89
2022-10-19T05:54:44.756Z,9.67
2022-10-19T05:55:48.252Z,10.04
2022-10-19T05:56:52.262Z,10.16
2022-10-19T05:57:57.249Z,9.81
2022-10-19T05:59:02.341Z,9.93
2022-10-19T06:00:09.530Z,10.09
2022-10-19T06:01:19.257Z,10.11
2022-10-19T06:02:20.813Z,10.03
2022-10-19T06:03:25.489Z,10.20
2022-10-19T06:04:27.190Z,9.99
2022-10-19T06:05:32.548Z,9.85
2022-10-19T06:06:39.679Z,10.23
2022-10-19T06:07:41.331Z,10.13
2022-10-19T06:08:47.428Z,10.07
2022-10-19T06:09:56.122Z,10.16
2022-10-19T06:11:11.420Z,10.27
2022-10-19T06:12:15.741Z,9.95
2022-10-19T06:13:31.433Z,9.81
2022-10-19T06:14:33.937Z,9.96
2022-10-19T06:15:36.877Z,10.19
2022-10-19T06:16:38.937Z,10.34
2022-10-19T06:17:46.470Z,10.33
2022-10-19T06:18:52.041Z,10.34
2022-10-19T06:19:54.047Z,10.32
2022-10-19T06:20:55.991Z,10.36
2022-10-19T06:21:58.180Z,10.36
2022-10-19T06:23:01.198Z,10.38
2022-10-19T06:24:05.162Z,9.97
2022-10-19T06:25:10.579Z,10.22
2022-10-19T06:26:14.317Z,10.05
2022-10-19T06:27:18.217Z,10.35
2022-10-19T06:28:21.465Z,10.38
2022-10-19T06:29:23.364Z,10.38
2022-10-19T06:30:25.262Z,10.38
2022-10-19T06:31:31.467Z,10.48
2022-10-19T06:32:37.853Z,10.38
2022-10-19T06:33:42.993Z,10.48
2022-10-19T06:34:53.003Z,10.45
2022-10-19T06:35:56.348Z,10.37
2022-10-19T06:36:58.161Z,10.33
2022-10-19T06:38:00.243Z,10.33
2022-10-19T06:39:02.552Z,10.58
2022-10-19T06:40:07.352Z,10.68
2022-10-19T06:41:10.767Z,10.01
2022-10-19T06:42:13.361Z,10.53
2022-10-19T06:43:15.641Z,10.41
2022-10-19T06:44:21.485Z,10.60
2022-10-19T06:45:24.483Z,10.29
2022-10-19T06:46:30.729Z,10.62
2022-10-19T06:47:37.242Z,10.73
2022-10-19T06:48:41.749Z,10.76
2022-10-19T06:49:44.815Z,10.83
2022-10-19T06:50:47.451Z,10.49
2022-10-19T06:51:51.782Z,10.67
2022-10-19T06:52:55.094Z,10.53
2022-10-19T06:53:59.892Z,10.99
2022-10-19T06:55:02.888Z,11.03
2022-10-19T06:56:07.126Z,11.13
2022-10-19T06:57:11.701Z,11.04
2022-10-19T06:58:22.056Z,10.95
2022-10-19T06:59:25.494Z,11.23
2022-10-19T07:00:29.279Z,11.45
2022-10-19T07:01:43.872Z,11.89
2022-10-19T07:02:46.447Z,12.02
2022-10-19T07:03:51.793Z,11.83
2022-10-19T07:04:53.561Z,12.24
2022-10-19T07:06:01.750Z,12.80
2022-10-19T07:07:04.225Z,13.08
2022-10-19T07:08:08.839Z,13.53
2022-10-19T07:09:10.737Z,13.92
2022-10-19T07:10:13.249Z,14.16
2022-10-19T07:11:22.300Z,14.58
2022-10-19T07:12:24.192Z,15.12
2022-10-19T07:13:28.103Z,15.41
2022-10-19T07:14:42.011Z,15.51
2022-10-19T07:15:44.312Z,15.42
2022-10-19T07:16:57.775Z,15.38
2022-10-19T07:18:09.592Z,14.96
2022-10-19T07:19:12.260Z,15.19
2022-10-19T07:20:15.752Z,15.05
2022-10-19T07:21:21.716Z,15.17
2022-10-19T07:22:28.080Z,15.11
2022-10-19T07:23:32.206Z,15.25
2022-10-19T07:24:37.223Z,15.32
2022-10-19T07:25:41.640Z,14.81
2022-10-19T07:26:44.574Z,14.85
2022-10-19T07:27:46.150Z,15.10
2022-10-19T07:28:50.102Z,14.92
2022-10-19T07:29:51.888Z,15.14
2022-10-19T07:30:53.618Z,15.07
2022-10-19T07:31:55.525Z,14.92
2022-10-19T07:32:57.835Z,15.03
2022-10-19T07:34:02.374Z,15.34
2022-10-19T07:35:07.773Z,15.26
2022-10-19T07:36:11.801Z,15.64
2022-10-19T07:37:15.669Z,15.99
2022-10-19T07:38:20.463Z,15.83
2022-10-19T07:39:22.255Z,15.97
2022-10-19T07:40:27.090Z,16.31
2022-10-19T07:41:28.892Z,16.50
2022-10-19T07:42:30.871Z,16.47
2022-10-19T07:43:33.161Z,16.62
2022-10-19T07:44:34.923Z,16.25
2022-10-19T07:45:36.729Z,16.90
2022-10-19T07:46:39.721Z,17.37
2022-10-19T07:47:43.318Z,18.20
2022-10-19T07:48:48.140Z,19.10
2022-10-19T07:49:49.811Z,19.87
2022-10-19T07:50:53.236Z,20.54
2022-10-19T07:51:56.071Z,21.41
2022-10-19T07:52:58.907Z,22.14
2022-10-19T07:54:01.894Z,22.49
2022-10-19T07:55:05.234Z,22.83
2022-10-19T07:56:09.480Z,23.07
2022-10-19T07:57:12.452Z,24.03
2022-10-19T07:58:14.378Z,24.35
2022-10-19T07:59:17.629Z,24.89
2022-10-19T08:00:24.079Z,25.62
2022-10-19T08:01:32.019Z,25.96
2022-10-19T08:02:54.680Z,26.60
2022-10-19T08:05:24.122Z,27.61
2022-10-19T08:06:26.843Z,27.90
2022-10-19T08:07:28.849Z,28.43
2022-10-19T08:08:31.055Z,28.85
2022-10-19T08:09:52.125Z,29.00
2022-10-19T08:10:55.883Z,28.87
2022-10-19T08:11:57.521Z,29.16
2022-10-19T08:12:59.611Z,29.32
2022-10-19T08:14:08.426Z,29.58
2022-10-19T08:15:11.173Z,29.48
2022-10-19T08:16:29.820Z,29.69
2022-10-19T08:17:40.263Z,29.14
2022-10-19T08:19:08.470Z,29.36
2022-10-19T08:20:19.336Z,29.05
2022-10-19T08:21:23.655Z,29.08
2022-10-19T08:22:26.777Z,28.90
2022-10-19T08:23:28.848Z,27.81
2022-10-19T08:24:34.600Z,27.64
2022-10-19T08:25:45.686Z,27.81
2022-10-19T08:26:53.382Z,27.73
2022-10-19T08:27:55.482Z,28.19
2022-10-19T08:29:04.902Z,28.48
2022-10-19T08:30:07.740Z,29.24
2022-10-19T08:31:18.374Z,29.79
2022-10-19T08:32:19.982Z,29.05
2022-10-19T08:33:21.910Z,28.82
2022-10-19T08:34:23.893Z,29.50
2022-10-19T08:35:27.052Z,28.89
2022-10-19T08:36:31.268Z,29.53
2022-10-19T08:37:44.204Z,29.63
2022-10-19T08:38:49.357Z,30.41
2022-10-19T08:39:52.615Z,31.21
2022-10-19T08:40:57.003Z,31.81
2022-10-19T08:42:07.509Z,31.99
2022-10-19T08:43:22.697Z,32.34
2022-10-19T08:44:40.400Z,32.93
2022-10-19T08:45:52.392Z,32.15
2022-10-19T08:47:29.647Z,32.15
2022-10-19T08:48:40.817Z,31.26
2022-10-19T08:49:47.257Z,32.04
2022-10-19T08:50:49.509Z,31.89
2022-10-19T08:52:15.417Z,32.48
2022-10-19T08:53:42.717Z,32.26
2022-10-19T08:54:53.915Z,32.94
2022-10-19T08:56:38.815Z,33.84
2022-10-19T08:57:57.243Z,32.16
2022-10-19T08:59:03.994Z,32.23
2022-10-19T09:00:22.042Z,32.51
2022-10-19T09:01:59.447Z,32.53
2022-10-19T09:03:54.485Z,33.15
2022-10-19T09:05:08.411Z,32.31
2022-10-19T09:06:24.551Z,32.81
2022-10-19T09:07:35.520Z,32.05
2022-10-19T09:08:40.205Z,32.14
2022-10-19T09:09:49.100Z,32.13
2022-10-19T09:10:53.833Z,32.18
2022-10-19T09:12:03.758Z,32.40
2022-10-19T09:13:46.969Z,32.54
2022-10-19T09:15:02.872Z,32.07
2022-10-19T09:16:05.393Z,32.10
2022-10-19T09:17:18.863Z,32.01
2022-10-19T09:18:29.797Z,32.16
2022-10-19T09:19:32.411Z,32.58
2022-10-19T09:20:45.545Z,33.16
2022-10-19T09:21:58.244Z,33.20
2022-10-19T09:23:21.265Z,33.53
2022-10-19T09:24:44.465Z,32.62
2022-10-19T09:25:50.183Z,31.52
2022-10-19T09:26:55.505Z,31.46
2022-10-19T09:28:14.128Z,30.92
2022-10-19T09:29:48.274Z,30.42
2022-10-19T09:30:54.574Z,30.33
2022-10-19T09:32:00.658Z,30.80
2022-10-19T09:33:05.016Z,31.09
2022-10-19T09:34:20.199Z,31.69
2022-10-19T09:35:27.902Z,32.69
2022-10-19T09:36:50.497Z,33.57
2022-10-19T09:38:05.427Z,33.69
2022-10-19T09:39:15.869Z,33.35
2022-10-19T09:40:28.880Z,34.09
2022-10-19T09:41:37.604Z,33.78
2022-10-19T09:42:42.000Z,33.20
2022-10-19T09:43:58.963Z,32.82
2022-10-19T09:45:18.041Z,32.97
2022-10-19T09:46:39.573Z,32.79
2022-10-19T09:47:44.546Z,32.25
2022-10-19T09:48:54.535Z,31.49
2022-10-19T09:50:26.157Z,30.70
2022-10-19T09:51:40.225Z,30.09
2022-10-19T09:52:45.051Z,29.20
2022-10-19T09:53:52.818Z,29.96
2022-10-19T09:55:14.068Z,30.41
2022-10-19T09:56:21.639Z,30.39
2022-10-19T09:57:26.668Z,31.47
2022-10-19T09:58:33.102Z,32.58
2022-10-19T09:59:37.858Z,32.99
2022-10-19T10:00:52.615Z,33.38
2022-10-19T10:02:29.305Z,34.08
2022-10-19T10:03:44.235Z,34.92
2022-10-19T10:04:48.875Z,35.37
2022-10-19T10:06:02.349Z,35.89
2022-10-19T10:07:05.957Z,36.83
2022-10-19T10:08:17.424Z,37.01
2022-10-19T10:09:34.254Z,36.35
2022-10-19T10:10:44.689Z,36.30
2022-10-19T10:11:48.946Z,36.03
2022-10-19T10:12:56.956Z,36.12
2022-10-19T10:14:07.498Z,36.34
2022-10-19T10:15:19.560Z,35.73
2022-10-19T10:16:38.348Z,34.94
2022-10-19T10:17:41.170Z,34.43
2022-10-19T10:18:53.945Z,34.28
2022-10-19T10:20:01.696Z,33.57
2022-10-19T10:21:15.274Z,33.42
2022-10-19T10:22:41.206Z,33.34
2022-10-19T10:23:44.255Z,32.32
2022-10-19T10:24:59.421Z,32.32
2022-10-19T10:26:01.406Z,32.13
2022-10-19T10:27:06.670Z,32.46
2022-10-19T10:28:28.246Z,31.90
2022-10-19T10:29:36.720Z,30.83
2022-10-19T10:30:41.658Z,30.86
2022-10-19T10:31:44.773Z,30.71
2022-10-19T10:32:58.028Z,31.12
2022-10-19T10:34:12.433Z,31.23
2022-10-19T10:35:34.619Z,30.81
2022-10-19T10:36:36.269Z,30.48
2022-10-19T10:37:44.523Z,30.37
2022-10-19T10:38:55.606Z,30.16
2022-10-19T10:40:03.990Z,29.72
2022-10-19T10:41:23.016Z,29.29
2022-10-19T10:42:30.960Z,29.19
2022-10-19T10:43:35.925Z,28.81
2022-10-19T10:44:45.526Z,28.25
2022-10-19T10:45:55.538Z,28.00
2022-10-19T10:47:00.309Z,28.46
2022-10-19T10:48:27.254Z,27.84
2022-10-19T10:49:42.955Z,27.79
2022-10-19T10:50:57.903Z,28.01
2022-10-19T10:52:17.966Z,29.24
2022-10-19T10:53:31.768Z,30.57
2022-10-19T10:54:35.437Z,31.07
2022-10-19T10:55:38.726Z,31.14
2022-10-19T10:56:44.117Z,31.99
2022-10-19T10:57:54.566Z,32.62
2022-10-19T10:59:03.252Z,33.24
2022-10-19T11:00:16.376Z,33.72
2022-10-19T11:01:30.793Z,33.94
2022-10-19T11:03:22.792Z,34.41
2022-10-19T11:04:29.793Z,34.49
2022-10-19T11:05:33.981Z,33.68
2022-10-19T11:06:46.076Z,31.49
2022-10-19T11:07:56.898Z,31.54
2022-10-19T11:09:25.693Z,30.64
2022-10-19T11:10:46.252Z,30.10
2022-10-19T11:11:56.929Z,30.34
2022-10-19T11:13:35.890Z,30.09
2022-10-19T11:15:05.451Z,29.32
2022-10-19T11:16:20.842Z,28.82
2022-10-19T11:17:29.092Z,27.46
2022-10-19T11:20:24.707Z,28.02
2022-10-19T11:21:56.911Z,28.59
2022-10-19T11:23:52.370Z,29.26
2022-10-19T11:25:12.658Z,28.71
2022-10-19T11:26:36.485Z,28.37
2022-10-19T11:28:01.072Z,28.79
2022-10-19T11:29:24.160Z,29.24
2022-10-19T11:30:27.355Z,30.14
2022-10-19T11:31:47.520Z,30.76
2022-10-19T11:33:14.034Z,31.25
2022-10-19T11:34:26.022Z,30.89
2022-10-19T11:36:13.492Z,29.97
2022-10-19T11:37:49.950Z,31.12
2022-10-19T11:39:21.263Z,31.04
2022-10-19T11:40:35.812Z,30.35
2022-10-19T11:41:43.517Z,30.28
2022-10-19T11:43:05.039Z,31.18
2022-10-19T11:44:46.390Z,30.87
2022-10-19T11:45:54.663Z,30.80
2022-10-19T11:47:18.800Z,30.97
2022-10-19T11:48:43.877Z,31.02
2022-10-19T11:50:06.783Z,31.46
2022-10-19T11:51:21.882Z,32.14
2022-10-19T11:52:49.033Z,32.56
2022-10-19T11:54:20.975Z,33.31
2022-10-19T11:55:28.623Z,32.72
2022-10-19T11:56:58.082Z,32.00
2022-10-19T11:58:19.927Z,32.69
2022-10-19T11:59:46.923Z,32.19
2022-10-19T12:01:13.117Z,31.10
2022-10-19T12:02:24.275Z,30.49
2022-10-19T12:03:56.669Z,30.35
2022-10-19T12:05:13.026Z,29.97
2022-10-19T12:06:27.720Z,29.57
2022-10-19T12:08:04.330Z,29.05
2022-10-19T12:09:24.536Z,29.44
2022-10-19T12:10:33.029Z,29.05
2022-10-19T12:11:38.195Z,29.08
2022-10-19T12:12:46.299Z,28.89
2022-10-19T12:13:53.473Z,28.79
2022-10-19T12:15:25.800Z,28.63
2022-10-19T12:16:53.115Z,28.90
2022-10-19T12:18:04.617Z,28.96
2022-10-19T12:19:18.670Z,29.09
2022-10-19T12:20:25.121Z,30.44
2022-10-19T12:21:30.341Z,30.68
2022-10-19T12:22:36.530Z,30.97
2022-10-19T12:23:44.374Z,31.61
2022-10-19T12:24:46.847Z,30.27
2022-10-19T12:25:49.762Z,29.90
2022-10-19T12:26:55.069Z,29.53
2022-10-19T12:27:57.238Z,29.96
2022-10-19T12:29:13.140Z,30.37
2022-10-19T12:30:28.567Z,29.46
2022-10-19T12:31:31.167Z,29.20
2022-10-19T12:32:44.058Z,28.33
2022-10-19T12:34:07.859Z,28.29
2022-10-19T12:35:45.154Z,28.52
2022-10-19T12:36:58.865Z,28.90
2022-10-19T12:38:06.044Z,29.36
2022-10-19T12:39:32.914Z,29.85
2022-10-19T12:40:44.116Z,29.01
2022-10-19T12:41:53.146Z,29.27
2022-10-19T12:43:04.087Z,29.02
2022-10-19T12:44:42.370Z,29.16
2022-10-19T12:46:33.175Z,29.35
2022-10-19T12:47:35.618Z,28.08
2022-10-19T12:48:40.558Z,28.28
2022-10-19T12:49:53.469Z,28.15
2022-10-19T12:51:04.256Z,28.73
2022-10-19T12:52:08.602Z,28.33
2022-10-19T12:53:41.323Z,28.09
2022-10-19T12:54:44.460Z,27.93
2022-10-19T12:55:47.414Z,28.70
2022-10-19T12:56:57.928Z,28.86
2022-10-19T12:58:08.596Z,28.46
2022-10-19T12:59:31.578Z,28.16
2022-10-19T13:00:36.642Z,28.01
2022-10-19T13:01:39.151Z,27.90
2022-10-19T13:02:43.766Z,27.63
2022-10-19T13:03:48.910Z,28.38
2022-10-19T13:04:57.196Z,28.96
2022-10-19T13:06:08.054Z,28.17
2022-10-19T13:07:18.041Z,28.21
2022-10-19T13:08:32.390Z,28.25
2022-10-19T13:09:48.068Z,27.44
2022-10-19T13:11:15.046Z,27.76
2022-10-19T13:12:21.395Z,28.02
2022-10-19T13:14:00.232Z,27.25
2022-10-19T13:15:05.487Z,27.51
2022-10-19T13:16:39.603Z,28.32
2022-10-19T13:17:45.910Z,28.36
2022-10-19T13:19:00.450Z,28.01
2022-10-19T13:20:14.049Z,28.06
2022-10-19T13:21:48.138Z,27.59
2022-10-19T13:23:08.995Z,27.83
2022-10-19T13:24:25.381Z,27.14
2022-10-19T13:25:32.135Z,26.48
2022-10-19T13:26:35.730Z,26.55
2022-10-19T13:27:39.893Z,26.03
2022-10-19T13:28:54.649Z,25.93
2022-10-19T13:29:56.631Z,25.15
2022-10-19T13:31:24.066Z,25.87
2022-10-19T13:32:35.876Z,24.91
2022-10-19T13:33:45.559Z,25.30
2022-10-19T13:34:48.460Z,25.04
2022-10-19T13:36:11.656Z,24.45
2022-10-19T13:37:18.640Z,24.75
2022-10-19T13:38:26.636Z,24.53
2022-10-19T13:39:30.357Z,24.91
2022-10-19T13:40:33.223Z,24.81
2022-10-19T13:41:36.255Z,24.17
2022-10-19T13:42:41.615Z,24.30
2022-10-19T13:44:11.451Z,25.00
2022-10-19T13:45:26.883Z,25.53
2022-10-19T13:46:33.074Z,25.93
2022-10-19T13:47:44.031Z,26.05
2022-10-19T13:49:01.581Z,26.74
2022-10-19T13:50:30.937Z,27.42
2022-10-19T13:51:50.934Z,27.61
2022-10-19T13:53:11.448Z,26.53
2022-10-19T13:54:22.911Z,26.58
2022-10-19T13:56:02.432Z,26.51
2022-10-19T13:57:19.240Z,26.06
2022-10-19T13:58:39.016Z,26.05
2022-10-19T14:00:03.139Z,25.55
2022-10-19T14:01:23.005Z,25.15
2022-10-19T14:02:35.928Z,25.15
2022-10-19T14:04:03.229Z,25.00
2022-10-19T14:05:31.084Z,25.11
2022-10-19T14:06:56.749Z,24.53
2022-10-19T14:08:02.461Z,24.37
2022-10-19T14:09:32.060Z,24.07
2022-10-19T14:10:56.316Z,23.88
2022-10-19T14:12:09.023Z,23.55
2022-10-19T14:13:22.428Z,23.81
2022-10-19T14:14:25.073Z,24.35
2022-10-19T14:15:31.226Z,23.74
2022-10-19T14:16:33.148Z,22.88
2022-10-19T14:17:42.530Z,22.63
2022-10-19T14:18:44.083Z,23.29
2022-10-19T14:19:53.872Z,23.24
2022-10-19T14:21:04.624Z,22.82
2022-10-19T14:22:30.232Z,23.00
2022-10-19T14:23:36.816Z,23.26
2022-10-19T14:24:38.583Z,23.04
2022-10-19T14:25:41.054Z,23.41
2022-10-19T14:26:42.962Z,23.63
2022-10-19T14:27:50.132Z,24.03
2022-10-19T14:28:54.902Z,24.20
2022-10-19T14:29:56.674Z,23.86
2022-10-19T14:31:04.040Z,23.52
2022-10-19T14:32:05.858Z,23.36
2022-10-19T14:33:13.452Z,23.78
2022-10-19T14:34:16.541Z,23.88
2022-10-19T14:35:29.542Z,23.67
2022-10-19T14:36:36.745Z,23.44
2022-10-19T14:37:38.577Z,23.13
2022-10-19T14:38:47.128Z,23.48
2022-10-19T14:40:26.410Z,23.45
2022-10-19T14:41:36.058Z,23.67
2022-10-19T14:42:44.995Z,23.43
2022-10-19T14:43:48.088Z,23.44
2022-10-19T14:44:49.840Z,22.89
2022-10-19T14:46:07.810Z,23.00
2022-10-19T14:47:18.123Z,22.83
2022-10-19T14:48:20.380Z,22.86
2022-10-19T14:49:24.109Z,22.55
2022-10-19T14:50:53.607Z,22.83
2022-10-19T14:52:03.443Z,22.31
2022-10-19T14:53:20.734Z,22.07
2022-10-19T14:54:42.536Z,21.89
2022-10-19T14:55:45.245Z,21.96
2022-10-19T14:56:56.091Z,21.79
2022-10-19T14:58:01.077Z,21.66
2022-10-19T14:59:32.267Z,21.61
2022-10-19T15:00:34.553Z,21.54
2022-10-19T15:01:37.169Z,20.92
2022-10-19T15:02:47.311Z,21.02